createdAt,value
2022-11-24T00:01:56.473Z,22.10
2022-11-24T00:04:18.379Z,18.30
2022-11-24T00:06:40.416Z,14.30
2022-11-24T00:09:04.491Z,15.57
2022-11-24T00:11:33.699Z,13.85
2022-11-24T00:13:57.496Z,17.47
2022-11-24T00:16:26.352Z,16.77
2022-11-24T00:18:51.070Z,22.50
2022-11-24T00:21:14.768Z,19.77
2022-11-24T00:23:37.414Z,13.85
2022-11-24T00:26:13.615Z,16.43
2022-11-24T00:28:37.507Z,18.27
2022-11-24T00:30:59.770Z,16.38
2022-11-24T00:33:21.681Z,16.40
2022-11-24T00:35:43.492Z,18.73
2022-11-24T00:38:05.254Z,19.40
2022-11-24T00:40:32.127Z,16.47
2022-11-24T00:42:56.624Z,22.03
2022-11-24T00:45:18.635Z,15.60
2022-11-24T00:47:40.445Z,13.63
2022-11-24T00:50:02.321Z,14.23
2022-11-24T00:52:24.173Z,15.50
2022-11-24T00:54:46.028Z,18.83
2022-11-24T00:57:07.797Z,17.00
2022-11-24T00:59:29.733Z,18.73
2022-11-24T01:01:51.610Z,16.40
2022-11-24T01:04:13.460Z,15.67
2022-11-24T01:06:36.769Z,15.77
2022-11-24T01:08:59.002Z,14.57
2022-11-24T01:11:51.589Z,14.83
2022-11-24T01:14:13.417Z,13.93
2022-11-24T01:16:35.504Z,19.27
2022-11-24T01:18:57.644Z,22.37
2022-11-24T01:21:21.158Z,12.40
2022-11-24T01:23:43.174Z,17.30
2022-11-24T01:26:08.715Z,18.33
2022-11-24T01:28:30.550Z,12.90
2022-11-24T01:31:01.476Z,11.50
2022-11-24T01:33:23.405Z,14.90
2022-11-24T01:35:45.270Z,18.73
2022-11-24T01:38:07.290Z,19.70
2022-11-24T01:40:29.180Z,14.60
2022-11-24T01:42:53.240Z,15.80
2022-11-24T01:45:41.798Z,15.43
2022-11-24T01:48:07.794Z,15.47
2022-11-24T01:50:29.974Z,16.10
2022-11-24T01:52:55.678Z,19.57
2022-11-24T01:55:25.862Z,13.77
2022-11-24T01:57:59.923Z,16.53
2022-11-24T02:00:22.110Z,21.95
2022-11-24T02:02:45.792Z,12.20
2022-11-24T02:05:24.071Z,15.50
2022-11-24T02:07:48.691Z,14.10
2022-11-24T02:10:14.993Z,16.33
2022-11-24T02:12:40.368Z,13.13
2022-11-24T02:15:02.455Z,17.47
2022-11-24T02:17:24.285Z,17.00
2022-11-24T02:20:00.805Z,13.17
2022-11-24T02:22:47.476Z,15.33
2022-11-24T02:25:46.921Z,16.00
2022-11-24T02:28:16.920Z,13.23
2022-11-24T02:30:39.445Z,16.70
2022-11-24T02:33:02.619Z,15.23
2022-11-24T02:35:27.872Z,12.57
2022-11-24T02:37:49.666Z,19.90
2022-11-24T02:40:16.693Z,12.87
2022-11-24T02:42:44.492Z,17.77
2022-11-24T02:45:09.951Z,14.00
2022-11-24T02:47:31.826Z,15.77
2022-11-24T02:49:53.656Z,18.40
2022-11-24T02:52:16.001Z,14.20
2022-11-24T02:54:37.858Z,15.03
2022-11-24T02:57:00.813Z,18.07
2022-11-24T02:59:22.914Z,14.73
2022-11-24T03:01:44.769Z,13.97
2022-11-24T03:04:07.010Z,15.37
2022-11-24T03:06:28.865Z,18.63
2022-11-24T03:08:50.783Z,15.10
2022-11-24T03:11:12.572Z,15.97
2022-11-24T03:13:34.371Z,17.90
2022-11-24T03:15:56.242Z,22.77
2022-11-24T03:18:18.171Z,13.47
2022-11-24T03:20:39.939Z,15.87
2022-11-24T03:23:01.735Z,14.43
2022-11-24T03:25:23.763Z,14.57
2022-11-24T03:27:46.137Z,14.47
2022-11-24T03:30:08.988Z,19.83
2022-11-24T03:32:30.973Z,19.37
2022-11-24T03:34:52.779Z,17.97
2022-11-24T03:37:15.243Z,22.03
2022-11-24T03:39:36.989Z,17.20
2022-11-24T03:41:58.944Z,13.70
2022-11-24T03:44:20.672Z,11.87
2022-11-24T03:46:42.603Z,15.43
2022-11-24T03:49:04.458Z,18.50
2022-11-24T03:51:26.264Z,14.67
2022-11-24T03:53:48.125Z,20.90
2022-11-24T03:56:09.876Z,17.50
2022-11-24T03:58:31.743Z,14.67
2022-11-24T04:00:55.941Z,20.40
2022-11-24T04:03:18.052Z,19.95
2022-11-24T04:05:39.910Z,16.67
2022-11-24T04:08:03.781Z,12.67
2022-11-24T04:10:25.717Z,22.58
2022-11-24T04:12:47.528Z,16.57
2022-11-24T04:15:14.942Z,19.20
2022-11-24T04:17:36.762Z,21.37
2022-11-24T04:19:58.552Z,23.60
2022-11-24T04:22:20.332Z,19.80
2022-11-24T04:24:42.656Z,17.70
2022-11-24T04:27:04.573Z,23.97
2022-11-24T04:29:26.385Z,21.30
2022-11-24T04:31:48.249Z,22.63
2022-11-24T04:34:11.717Z,21.63
2022-11-24T04:36:33.504Z,20.03
2022-11-24T04:39:24.331Z,18.17
2022-11-24T04:41:37.157Z,20.10
2022-11-24T04:43:58.974Z,18.13
2022-11-24T04:46:20.810Z,24.00
2022-11-24T04:48:42.783Z,17.67
2022-11-24T04:51:06.157Z,20.63
2022-11-24T04:53:28.299Z,19.50
2022-11-24T04:55:50.429Z,22.13
2022-11-24T04:58:12.640Z,21.50
2022-11-24T05:00:34.611Z,13.00
2022-11-24T05:02:56.686Z,16.67
2022-11-24T05:05:18.700Z,15.93
2022-11-24T05:07:40.520Z,8.90
2022-11-24T05:10:21.510Z,6.83
2022-11-24T05:12:48.408Z,9.73
2022-11-24T05:15:12.889Z,5.10
2022-11-24T05:17:38.709Z,6.20
2022-11-24T05:20:00.731Z,7.13
2022-11-24T05:22:22.554Z,9.30
2022-11-24T05:24:44.275Z,8.97
2022-11-24T05:27:06.171Z,5.90
2022-11-24T05:29:28.010Z,7.70
2022-11-24T05:31:49.833Z,10.70
2022-11-24T05:34:13.351Z,11.97
2022-11-24T05:36:53.215Z,10.03
2022-11-24T05:39:15.010Z,14.03
2022-11-24T05:41:36.787Z,12.20
2022-11-24T05:43:58.552Z,13.20
2022-11-24T05:46:20.361Z,9.57
2022-11-24T05:48:42.232Z,9.10
2022-11-24T05:51:07.959Z,12.97
2022-11-24T05:53:31.159Z,14.07
2022-11-24T05:55:53.167Z,10.37
2022-11-24T05:58:15.058Z,12.03
2022-11-24T06:00:37.562Z,11.40
2022-11-24T06:03:00.484Z,20.07
2022-11-24T06:05:22.494Z,10.00
2022-11-24T06:07:44.523Z,11.73
2022-11-24T06:10:06.736Z,9.03
2022-11-24T06:12:28.547Z,12.30
2022-11-24T06:14:50.361Z,12.47
2022-11-24T06:17:12.849Z,14.77
2022-11-24T06:19:40.043Z,11.93
2022-11-24T06:22:04.370Z,18.03
2022-11-24T06:24:26.145Z,17.17
2022-11-24T06:26:48.063Z,13.00
2022-11-24T06:29:09.968Z,15.03
2022-11-24T06:31:31.898Z,22.20
2022-11-24T06:33:53.919Z,12.83
2022-11-24T06:36:16.269Z,15.73
2022-11-24T06:38:38.255Z,19.53
2022-11-24T06:41:06.752Z,19.73
2022-11-24T06:43:30.483Z,22.23
2022-11-24T06:45:52.547Z,16.15
2022-11-24T06:48:14.443Z,13.70
2022-11-24T06:50:36.412Z,18.27
2022-11-24T06:52:58.217Z,15.40
2022-11-24T06:55:20.079Z,13.63
2022-11-24T06:57:41.930Z,14.97
2022-11-24T07:00:08.835Z,16.97
2022-11-24T07:02:30.762Z,13.90
2022-11-24T07:04:52.690Z,13.10
2022-11-24T07:07:14.590Z,11.93
2022-11-24T07:09:36.590Z,14.63
2022-11-24T07:11:58.419Z,13.87
2022-11-24T07:14:20.240Z,14.40
2022-11-24T07:16:42.498Z,14.13
2022-11-24T07:19:04.652Z,10.80
2022-11-24T07:21:28.794Z,12.20
2022-11-24T07:26:19.668Z,9.87
2022-11-24T07:28:41.736Z,11.13
2022-11-24T07:31:13.658Z,7.27
2022-11-24T07:33:36.542Z,7.43
2022-11-24T07:36:00.843Z,7.47
2022-11-24T07:38:22.672Z,7.70
2022-11-24T07:40:45.032Z,2.73
2022-11-24T07:43:07.008Z,4.33
2022-11-24T07:45:28.895Z,8.87
2022-11-24T07:47:50.802Z,5.97
2022-11-24T07:50:13.174Z,8.10
2022-11-24T07:52:35.377Z,6.50
2022-11-24T07:54:57.124Z,7.27
2022-11-24T07:57:18.987Z,5.77
2022-11-24T07:59:40.831Z,5.67
2022-11-24T08:02:02.668Z,5.90
2022-11-24T08:04:24.493Z,5.93
2022-11-24T08:06:47.646Z,4.93
2022-11-24T08:09:09.894Z,6.30
2022-11-24T08:11:32.922Z,6.03
2022-11-24T08:13:54.745Z,5.80
2022-11-24T08:16:19.258Z,4.93
2022-11-24T08:18:41.842Z,6.70
2022-11-24T08:21:05.600Z,7.07
2022-11-24T08:23:27.719Z,4.60
2022-11-24T08:25:54.188Z,6.10
2022-11-24T08:28:18.596Z,4.37
2022-11-24T08:30:40.699Z,7.57
2022-11-24T08:33:02.532Z,8.10
2022-11-24T08:35:24.751Z,5.97
2022-11-24T08:37:47.052Z,8.00
2022-11-24T08:40:09.983Z,5.13
2022-11-24T08:42:31.856Z,8.07
2022-11-24T08:44:58.874Z,5.37
2022-11-24T08:47:21.780Z,6.23
2022-11-24T08:49:43.604Z,8.37
2022-11-24T08:52:05.677Z,5.63
2022-11-24T08:54:28.045Z,8.73
2022-11-24T08:56:50.263Z,3.50
2022-11-24T08:59:14.094Z,7.20
2022-11-24T09:01:36.090Z,5.25
2022-11-24T09:03:58.490Z,11.10
2022-11-24T09:06:25.144Z,6.50
2022-11-24T09:08:47.154Z,6.93
2022-11-24T09:11:12.990Z,4.70
2022-11-24T09:13:35.723Z,6.17
2022-11-24T09:16:02.935Z,4.83
2022-11-24T09:18:29.948Z,7.40
2022-11-24T09:20:52.196Z,7.63
2022-11-24T09:23:14.765Z,6.67
2022-11-24T09:25:36.704Z,7.33
2022-11-24T09:28:00.043Z,5.93
2022-11-24T09:30:23.199Z,6.87
2022-11-24T09:32:45.066Z,6.43
2022-11-24T09:35:07.409Z,8.27
2022-11-24T09:37:32.514Z,9.33
2022-11-24T09:39:54.788Z,10.17
2022-11-24T09:42:53.437Z,9.70
2022-11-24T09:45:42.003Z,7.90
2022-11-24T09:48:21.330Z,8.00
2022-11-24T09:50:48.432Z,6.57
2022-11-24T09:53:46.304Z,9.30
2022-11-24T09:56:33.166Z,8.20
2022-11-24T09:59:05.454Z,5.37
2022-11-24T10:01:37.163Z,4.60
2022-11-24T10:04:05.674Z,7.93
2022-11-24T10:06:31.522Z,14.07
2022-11-24T10:09:11.529Z,11.10
2022-11-24T10:11:47.785Z,8.83
2022-11-24T10:14:15.518Z,8.10
2022-11-24T10:17:02.113Z,7.80
2022-11-24T10:19:48.512Z,10.63
2022-11-24T10:22:41.560Z,11.57
2022-11-24T10:25:39.405Z,6.63
2022-11-24T10:28:10.045Z,10.90
2022-11-24T10:30:31.984Z,11.70
2022-11-24T10:33:23.168Z,9.00
2022-11-24T10:36:08.023Z,9.30
2022-11-24T10:38:44.106Z,10.13
2022-11-24T10:41:16.676Z,8.30
2022-11-24T10:43:43.263Z,11.13
2022-11-24T10:46:15.802Z,14.27
2022-11-24T10:48:47.552Z,10.50
2022-11-24T10:52:05.875Z,13.17
2022-11-24T10:54:28.835Z,10.00
2022-11-24T10:56:54.335Z,13.85
2022-11-24T10:59:36.202Z,13.33
2022-11-24T11:01:59.415Z,11.73
2022-11-24T11:04:34.635Z,10.57
2022-11-24T11:07:18.788Z,12.73
2022-11-24T11:09:40.757Z,12.70
2022-11-24T11:12:42.885Z,16.13
2022-11-24T11:15:25.834Z,17.67
2022-11-24T11:17:52.329Z,11.43
2022-11-24T11:20:27.868Z,10.77
2022-11-24T11:22:50.783Z,15.83
2022-11-24T11:25:12.607Z,15.30
2022-11-24T11:27:34.757Z,11.13
2022-11-24T11:36:11.240Z,15.17
2022-11-24T11:38:38.060Z,10.67
2022-11-24T11:41:02.942Z,12.43
2022-11-24T11:43:39.768Z,13.63
2022-11-24T11:46:21.488Z,12.27
2022-11-24T11:48:48.103Z,16.00
2022-11-24T11:51:44.429Z,15.37
2022-11-24T11:54:22.464Z,13.93
2022-11-24T11:56:49.924Z,14.90
2022-11-24T11:59:33.004Z,9.93
2022-11-24T12:02:54.008Z,18.00
2022-11-24T12:05:46.305Z,11.50
2022-11-24T12:09:17.964Z,13.57
2022-11-24T12:11:45.544Z,14.13
2022-11-24T12:14:37.536Z,15.80
2022-11-24T12:17:48.477Z,13.57
2022-11-24T12:20:38.056Z,11.47
2022-11-24T12:23:21.677Z,15.07
2022-11-24T12:26:01.590Z,9.50
2022-11-24T12:29:03.773Z,14.47
2022-11-24T12:31:57.317Z,10.03
2022-11-24T12:34:50.428Z,17.00
2022-11-24T12:37:50.315Z,11.30
2022-11-24T12:40:20.826Z,12.03
2022-11-24T12:43:01.523Z,8.07
2022-11-24T12:45:51.300Z,12.37
2022-11-24T12:48:25.300Z,10.17
2022-11-24T12:50:47.489Z,8.20
2022-11-24T12:53:20.456Z,8.43
2022-11-24T12:55:44.245Z,11.87
2022-11-24T12:58:30.131Z,7.00
2022-11-24T13:01:11.558Z,7.90
2022-11-24T13:04:09.615Z,15.50
2022-11-24T13:06:53.464Z,10.13
2022-11-24T13:09:15.633Z,8.83
2022-11-24T13:11:52.431Z,9.17
2022-11-24T13:14:22.198Z,9.97
2022-11-24T13:17:31.872Z,13.13
2022-11-24T13:19:42.160Z,16.07
2022-11-24T13:22:07.002Z,14.10
2022-11-24T13:24:36.885Z,10.70
2022-11-24T13:27:17.974Z,15.17
2022-11-24T13:29:45.130Z,8.87
2022-11-24T13:32:07.027Z,12.80
2022-11-24T13:34:45.544Z,9.70
2022-11-24T13:37:32.003Z,7.47
2022-11-24T13:40:02.342Z,9.90
2022-11-24T13:42:42.804Z,9.30
2022-11-24T13:45:41.627Z,8.70
2022-11-24T13:48:29.108Z,6.53
2022-11-24T13:50:51.242Z,10.70
2022-11-24T13:53:39.210Z,9.67
2022-11-24T13:56:10.035Z,6.33
2022-11-24T13:58:48.035Z,10.97
2022-11-24T14:01:29.595Z,9.70
2022-11-24T14:04:43.270Z,9.20
2022-11-24T14:07:08.441Z,12.73
2022-11-24T14:09:47.055Z,9.17
2022-11-24T14:12:22.025Z,11.20
2022-11-24T14:14:49.743Z,13.67
2022-11-24T14:17:25.480Z,9.13
2022-11-24T14:19:53.660Z,9.50
2022-11-24T14:22:20.700Z,14.20
2022-11-24T14:24:45.474Z,11.83
2022-11-24T14:27:16.818Z,7.70
2022-11-24T14:29:54.490Z,14.07
2022-11-24T14:32:16.910Z,14.33
2022-11-24T14:34:38.981Z,13.50
2022-11-24T14:37:02.121Z,15.30
2022-11-24T14:39:28.643Z,15.63
2022-11-24T14:42:16.048Z,12.90
2022-11-24T14:44:40.981Z,12.03
2022-11-24T14:47:19.124Z,12.27
2022-11-24T14:49:43.184Z,11.90
2022-11-24T14:52:14.773Z,17.77
2022-11-24T14:54:46.501Z,17.37
2022-11-24T14:57:35.183Z,11.23
2022-11-24T15:00:12.284Z,11.77
2022-11-24T15:02:55.417Z,12.33
2022-11-24T15:05:22.963Z,14.27
2022-11-24T15:07:48.205Z,12.50
2022-11-24T15:10:34.996Z,8.90
2022-11-24T15:13:01.997Z,11.30
2022-11-24T15:15:32.854Z,10.83
2022-11-24T15:17:58.711Z,11.57
2022-11-24T15:20:45.579Z,13.17
2022-11-24T15:23:13.500Z,11.07
2022-11-24T15:25:35.550Z,14.77
2022-11-24T15:27:57.691Z,11.60
2022-11-24T15:30:20.237Z,10.93
2022-11-24T15:32:50.808Z,12.87
2022-11-24T15:35:12.623Z,8.23
2022-11-24T15:37:34.450Z,12.80
2022-11-24T15:39:56.251Z,11.07
2022-11-24T15:42:18.096Z,10.07
2022-11-24T15:44:39.864Z,11.33
2022-11-24T15:47:01.704Z,13.30
2022-11-24T15:49:23.601Z,13.60
2022-11-24T15:51:47.375Z,11.43
2022-11-24T15:54:15.764Z,14.45
2022-11-24T15:56:38.909Z,12.80
2022-11-24T15:59:01.904Z,11.20
2022-11-24T16:01:32.061Z,13.77
2022-11-24T16:03:54.087Z,14.03
2022-11-24T16:06:24.514Z,9.83
2022-11-24T16:08:47.702Z,15.20
2022-11-24T16:11:09.599Z,11.27
2022-11-24T16:13:31.595Z,11.53
2022-11-24T16:15:53.699Z,15.90
2022-11-24T16:18:16.225Z,10.93
2022-11-24T16:20:38.130Z,13.93
2022-11-24T16:22:59.919Z,13.50
2022-11-24T16:25:21.827Z,11.93
2022-11-24T16:27:43.707Z,12.53
2022-11-24T16:30:07.890Z,11.67
2022-11-24T16:32:29.726Z,11.60
2022-11-24T16:34:51.638Z,13.20
2022-11-24T16:37:13.606Z,7.83
2022-11-24T16:39:35.583Z,13.17
2022-11-24T16:41:57.714Z,10.53
2022-11-24T16:44:19.505Z,12.30
2022-11-24T16:46:43.290Z,15.03
2022-11-24T16:49:05.205Z,11.25
2022-11-24T16:51:32.985Z,14.87
2022-11-24T16:54:02.358Z,13.20
2022-11-24T16:56:24.723Z,10.87
2022-11-24T16:58:46.479Z,13.13
2022-11-24T17:01:13.536Z,13.70
2022-11-24T17:03:38.652Z,15.40
2022-11-24T17:06:01.152Z,15.27
2022-11-24T17:08:22.956Z,16.80
2022-11-24T17:10:44.815Z,12.13
2022-11-24T17:13:06.640Z,14.03
2022-11-24T17:15:34.601Z,12.90
2022-11-24T17:20:40.342Z,15.47
2022-11-24T17:23:02.408Z,13.27
2022-11-24T17:25:24.260Z,12.40
2022-11-24T17:27:46.119Z,13.63
2022-11-24T17:30:08.686Z,12.17
2022-11-24T17:32:31.541Z,12.20
2022-11-24T17:34:53.316Z,13.57
2022-11-24T17:37:15.475Z,15.60
2022-11-24T17:39:37.239Z,16.23
2022-11-24T17:41:59.105Z,13.57
2022-11-24T17:44:21.015Z,14.63
2022-11-24T17:46:42.898Z,14.83
2022-11-24T17:49:06.660Z,14.93
2022-11-24T17:51:28.747Z,18.55
2022-11-24T17:53:52.871Z,12.70
2022-11-24T17:56:19.831Z,15.73
2022-11-24T17:58:43.302Z,18.00
2022-11-24T18:01:06.070Z,11.20
2022-11-24T18:03:32.589Z,15.53
2022-11-24T18:06:05.068Z,15.30
2022-11-24T18:08:27.074Z,14.97
2022-11-24T18:10:48.917Z,12.77
2022-11-24T18:13:22.371Z,16.20
2022-11-24T18:15:52.613Z,18.63
2022-11-24T18:18:15.029Z,11.70
2022-11-24T18:20:36.868Z,12.30
2022-11-24T18:23:05.897Z,14.63
2022-11-24T18:25:28.228Z,9.60
2022-11-24T18:27:50.035Z,16.97
2022-11-24T18:30:12.093Z,12.63
2022-11-24T18:32:34.074Z,15.60
2022-11-24T18:34:55.895Z,13.23
2022-11-24T18:37:17.728Z,15.97
2022-11-24T18:39:42.337Z,13.17
2022-11-24T18:42:04.378Z,14.40
2022-11-24T18:44:26.238Z,15.70
2022-11-24T18:46:49.469Z,12.13
2022-11-24T18:49:11.353Z,16.47
2022-11-24T18:51:33.783Z,13.03
2022-11-24T18:53:58.163Z,14.47
2022-11-24T18:58:43.618Z,12.07
2022-11-24T19:01:12.255Z,10.83
2022-11-24T19:03:42.313Z,9.83
2022-11-24T19:06:10.609Z,15.57
2022-11-24T19:08:33.114Z,13.67
2022-11-24T19:10:55.005Z,14.90
2022-11-24T19:13:17.073Z,15.07
2022-11-24T19:15:39.041Z,11.67
2022-11-24T19:18:02.063Z,14.60
2022-11-24T19:20:23.970Z,13.60
2022-11-24T19:22:46.186Z,17.50
2022-11-24T19:25:08.738Z,12.97
2022-11-24T19:27:30.664Z,12.80
2022-11-24T19:29:55.034Z,9.50
2022-11-24T19:32:19.221Z,13.65
2022-11-24T19:34:41.059Z,10.98
2022-11-24T19:37:03.023Z,13.33
2022-11-24T19:39:24.939Z,10.33
2022-11-24T19:41:47.058Z,13.33
2022-11-24T19:44:12.529Z,13.57
2022-11-24T19:46:34.427Z,12.33
2022-11-24T19:49:00.604Z,13.43
2022-11-24T19:51:26.873Z,13.20
2022-11-24T19:53:48.939Z,15.40
2022-11-24T19:56:19.115Z,13.17
2022-11-24T19:58:42.066Z,16.67
2022-11-24T20:01:09.844Z,14.20
2022-11-24T20:03:31.702Z,12.97
2022-11-24T20:05:57.528Z,12.23
2022-11-24T20:08:19.349Z,12.37
2022-11-24T20:10:42.476Z,13.67
2022-11-24T20:13:04.326Z,13.13
2022-11-24T20:15:26.117Z,14.50
2022-11-24T20:17:47.909Z,11.10
2022-11-24T20:20:10.504Z,16.47
2022-11-24T20:22:32.390Z,10.20
2022-11-24T20:24:54.260Z,12.87
2022-11-24T20:27:16.075Z,11.43
2022-11-24T20:29:45.233Z,15.40
2022-11-24T20:32:08.783Z,13.27
2022-11-24T20:34:30.830Z,15.03
2022-11-24T20:36:53.145Z,14.40
2022-11-24T20:39:26.533Z,11.43
2022-11-24T20:41:48.495Z,11.67
2022-11-24T20:44:15.706Z,14.43
2022-11-24T20:46:41.813Z,10.03
2022-11-24T20:49:07.460Z,11.50
2022-11-24T20:51:36.965Z,14.60
2022-11-24T20:54:06.707Z,20.27
2022-11-24T20:56:35.295Z,13.13
2022-11-24T20:58:58.239Z,14.60
2022-11-24T21:01:26.532Z,13.13
2022-11-24T21:03:54.643Z,14.20
2022-11-24T21:06:16.486Z,10.30
2022-11-24T21:08:41.278Z,9.83
2022-11-24T21:11:05.639Z,13.23
2022-11-24T21:13:29.049Z,12.88
2022-11-24T21:15:52.089Z,8.07
2022-11-24T21:18:13.893Z,9.37
2022-11-24T21:20:35.775Z,13.83
2022-11-24T21:22:58.229Z,13.37
2022-11-24T21:25:20.084Z,10.90
2022-11-24T21:27:41.862Z,11.53
2022-11-24T21:30:04.217Z,10.93
2022-11-24T21:32:27.902Z,12.37
2022-11-24T21:34:49.760Z,12.68
2022-11-24T21:37:11.589Z,13.40
2022-11-24T21:39:33.702Z,12.13
2022-11-24T21:41:55.604Z,14.60
2022-11-24T21:44:17.388Z,13.77
2022-11-24T21:46:45.057Z,12.23
2022-11-24T21:49:11.351Z,13.57
2022-11-24T21:51:33.345Z,12.97
2022-11-24T21:53:55.234Z,9.57
2022-11-24T21:56:20.954Z,10.13
2022-11-24T21:58:52.857Z,8.00
2022-11-24T22:01:17.314Z,12.07
2022-11-24T22:03:39.308Z,14.27
2022-11-24T22:06:02.163Z,11.93
2022-11-24T22:08:26.316Z,13.37
2022-11-24T22:10:48.556Z,15.98
2022-11-24T22:13:10.410Z,14.87
2022-11-24T22:15:32.243Z,10.00
2022-11-24T22:17:54.209Z,16.73
2022-11-24T22:20:16.279Z,15.63
2022-11-24T22:22:38.148Z,9.93
2022-11-24T22:25:00.144Z,15.33
2022-11-24T22:27:21.922Z,14.23
2022-11-24T22:29:43.695Z,14.93
2022-11-24T22:32:05.633Z,15.10
2022-11-24T22:34:28.888Z,15.63
2022-11-24T22:36:50.696Z,10.70
2022-11-24T22:39:13.204Z,11.80
2022-11-24T22:41:35.753Z,12.80
2022-11-24T22:43:57.587Z,12.03
2022-11-24T22:46:23.308Z,15.00
2022-11-24T22:48:47.719Z,11.50
2022-11-24T22:51:23.539Z,9.35
2022-11-24T22:53:54.349Z,10.60
2022-11-24T22:56:16.953Z,13.73
2022-11-24T22:58:39.947Z,12.37
2022-11-24T23:01:15.429Z,13.07
2022-11-24T23:03:38.709Z,13.47
2022-11-24T23:06:07.084Z,12.27
2022-11-24T23:08:29.937Z,15.10
2022-11-24T23:10:51.818Z,11.10
2022-11-24T23:13:13.614Z,11.63
2022-11-24T23:15:37.002Z,14.50
2022-11-24T23:17:58.826Z,11.60
2022-11-24T23:20:20.648Z,12.97
2022-11-24T23:22:42.495Z,11.00
2022-11-24T23:25:04.692Z,13.87
2022-11-24T23:27:26.522Z,11.00
2022-11-24T23:29:48.308Z,12.90
2022-11-24T23:32:10.194Z,14.07
2022-11-24T23:34:32.002Z,15.60
2022-11-24T23:36:53.771Z,11.83
2022-11-24T23:39:15.670Z,14.73
2022-11-24T23:41:37.744Z,16.33
2022-11-24T23:44:00.193Z,12.50
2022-11-24T23:46:25.121Z,12.93
2022-11-24T23:48:47.911Z,14.30
2022-11-24T23:51:15.200Z,16.10
2022-11-24T23:53:37.218Z,12.03
2022-11-24T23:55:59.144Z,10.80
2022-11-24T23:58:22.554Z,14.90
